Portada
METAR-TAF:

METAR-TAF

Aeropuertos :

Aeropuerto Internacional de Dubái

Dubái, Emiratos Árabes Unidos

latitud: 25-15-10N, longitud: 055-21-52E, altitud: 8 m

Observación

El informe se hizo hace 31 minutos, a las 02:00 UTC
Viento 2 kt con dirección variable
Temperatura 20°C
Humedad 64%
Presión 1015 hPa
Visibilidad 10 km o más
sin nubes por debajo de 1500 m y sin presencia de cumulonimbus.

METAR: OMDB 250200Z VRB02KT CAVOK 20/13 Q1015 NOSIG

Hora: 06:31 (02:31 UTC)

Pronóstico

El informe se hizo hace 3 horas y 31 minutos, a las 23:00 UTC
Pronóstico válido del 25 a las 00 UTC al 26 a las 06 UTC
Viento 8 kt del este
Visibilidad 10 km o más
sin nubes por debajo de 1500 m y sin presencia de cumulonimbus.
Probabilidad 40%
del 25 a las 10 UTC al 25 a las 14 UTC
Viento 12 kt del norte

TAF: OMDB 242300Z 2500/2606 09008KT CAVOK PROB40 2510/2514 36012KT

Observaciones y pronósticos meteorológicos de más de 4000 aeropuertos (mensajes METAR y TAF).

Los puntos amarillos y rojos representan las estaciones disponibles.

Ponga el ratón en el punto deseado para ver el nombre de la estación.

Haga clic para ver las observaciones y los pronósticos meteorológicos.

Para cambiar el mapa : haga clic en los botones verdes con una cruz de color negro para hacer un zoom, en el botón verde con un guión para alejar o en las flechas verdes para mapas adyacentes.


METAR-TAF: